Andover, Illinois
Current Conditions -  °F | °C
As of 9:52 PM on Saturday 25 Oct 2014 (Local Time) from KMLI Reporting Station
Clear Clear  
Wind Chill: 47°   Ceiling: Unl
Heat Index: 49°   Visibility: 10mi
Dew Point: 37°   Wind: 5mph
Humidity: 64%   Direction: 240°WSW
Pressure: 30.04"   Gusts: NA
Location:  41.29°N, 90.29°W
Report Text: KMLI 260252Z 24004KT 10SM CLR 09/03 A3004 RMK AO2 SLP172 T00940028 51011 $
Loading
Personal Weather Stations






























Interactive Weather Map
Tropical Storm Tracking
New forecast layout! Learn more

10-Day Weather Forecast

Advertisements
Track Severe Weather on mobile